sensor_id;sensor_type;location;lat;lon;timestamp;temperature;humidity
21672;DHT22;10997;52.242;8.168;2023-04-15T00:03:33;5.10;99.90
21672;DHT22;10997;52.242;8.168;2023-04-15T00:08:34;5.10;99.90
21672;DHT22;10997;52.242;8.168;2023-04-15T00:13:41;5.00;99.90
21672;DHT22;10997;52.242;8.168;2023-04-15T00:18:42;5.00;99.90
21672;DHT22;10997;52.242;8.168;2023-04-15T00:23:43;5.00;99.90
21672;DHT22;10997;52.242;8.168;2023-04-15T00:28:43;5.00;99.90
21672;DHT22;10997;52.242;8.168;2023-04-15T00:33:44;5.00;99.90
21672;DHT22;10997;52.242;8.168;2023-04-15T00:38:45;5.00;99.90
21672;DHT22;10997;52.242;8.168;2023-04-15T00:43:45;5.00;99.90
21672;DHT22;10997;52.242;8.168;2023-04-15T00:48:46;5.00;99.90
21672;DHT22;10997;52.242;8.168;2023-04-15T00:53:47;4.90;99.90
21672;DHT22;10997;52.242;8.168;2023-04-15T00:58:47;4.80;99.90
21672;DHT22;10997;52.242;8.168;2023-04-15T01:03:50;4.80;99.90
21672;DHT22;10997;52.242;8.168;2023-04-15T01:08:50;4.80;99.90
21672;DHT22;10997;52.242;8.168;2023-04-15T01:13:51;4.80;99.90
21672;DHT22;10997;52.242;8.168;2023-04-15T01:18:52;4.80;99.90
21672;DHT22;10997;52.242;8.168;2023-04-15T01:23:54;4.70;99.90
21672;DHT22;10997;52.242;8.168;2023-04-15T01:28:56;4.60;99.90
21672;DHT22;10997;52.242;8.168;2023-04-15T01:33:57;4.60;99.90
21672;DHT22;10997;52.242;8.168;2023-04-15T01:38:58;4.50;99.90
21672;DHT22;10997;52.242;8.168;2023-04-15T01:43:58;4.50;99.90
21672;DHT22;10997;52.242;8.168;2023-04-15T01:48:59;4.40;99.90
21672;DHT22;10997;52.242;8.168;2023-04-15T01:54:00;4.30;99.90
21672;DHT22;10997;52.242;8.168;2023-04-15T01:59:01;4.20;99.90
21672;DHT22;10997;52.242;8.168;2023-04-15T02:04:03;4.20;99.90
21672;DHT22;10997;52.242;8.168;2023-04-15T02:09:03;4.10;99.90
21672;DHT22;10997;52.242;8.168;2023-04-15T02:14:04;4.00;99.90
21672;DHT22;10997;52.242;8.168;2023-04-15T02:19:05;3.90;99.90
21672;DHT22;10997;52.242;8.168;2023-04-15T02:24:07;3.80;99.90
21672;DHT22;10997;52.242;8.168;2023-04-15T02:29:07;3.80;99.90
21672;DHT22;10997;52.242;8.168;2023-04-15T02:34:08;3.80;99.90
21672;DHT22;10997;52.242;8.168;2023-04-15T02:39:08;3.80;99.90
21672;DHT22;10997;52.242;8.168;2023-04-15T02:44:09;3.70;99.90
21672;DHT22;10997;52.242;8.168;2023-04-15T02:49:12;3.70;99.90
21672;DHT22;10997;52.242;8.168;2023-04-15T02:54:12;3.70;99.90
21672;DHT22;10997;52.242;8.168;2023-04-15T02:59:14;3.60;99.90
21672;DHT22;10997;52.242;8.168;2023-04-15T03:04:14;3.60;99.90
21672;DHT22;10997;52.242;8.168;2023-04-15T03:09:15;3.50;99.90
21672;DHT22;10997;52.242;8.168;2023-04-15T03:14:16;3.50;99.90
21672;DHT22;10997;52.242;8.168;2023-04-15T03:19:16;3.50;99.90
21672;DHT22;10997;52.242;8.168;2023-04-15T03:24:17;3.50;99.90
21672;DHT22;10997;52.242;8.168;2023-04-15T03:29:17;3.50;99.90
21672;DHT22;10997;52.242;8.168;2023-04-15T03:34:18;3.40;99.90
21672;DHT22;10997;52.242;8.168;2023-04-15T03:39:19;3.30;99.90
21672;DHT22;10997;52.242;8.168;2023-04-15T03:44:20;3.20;99.90
21672;DHT22;10997;52.242;8.168;2023-04-15T03:49:20;3.20;99.90
21672;DHT22;10997;52.242;8.168;2023-04-15T03:54:22;3.20;99.90
21672;DHT22;10997;52.242;8.168;2023-04-15T03:59:23;3.10;99.90
21672;DHT22;10997;52.242;8.168;2023-04-15T04:04:23;3.10;99.90
21672;DHT22;10997;52.242;8.168;2023-04-15T04:09:24;3.10;99.90
21672;DHT22;10997;52.242;8.168;2023-04-15T04:14:25;3.20;99.90
21672;DHT22;10997;52.242;8.168;2023-04-15T04:19:29;3.30;99.90
21672;DHT22;10997;52.242;8.168;2023-04-15T04:24:30;3.20;99.90
21672;DHT22;10997;52.242;8.168;2023-04-15T04:29:30;3.20;99.90
21672;DHT22;10997;52.242;8.168;2023-04-15T04:34:31;3.20;99.90
21672;DHT22;10997;52.242;8.168;2023-04-15T04:39:32;3.20;99.90
21672;DHT22;10997;52.242;8.168;2023-04-15T04:44:32;3.30;99.90
21672;DHT22;10997;52.242;8.168;2023-04-15T04:49:33;3.30;99.90
21672;DHT22;10997;52.242;8.168;2023-04-15T04:54:33;3.40;99.90
21672;DHT22;10997;52.242;8.168;2023-04-15T04:59:34;3.50;99.90
21672;DHT22;10997;52.242;8.168;2023-04-15T05:04:35;3.70;99.90
21672;DHT22;10997;52.242;8.168;2023-04-15T05:09:36;3.80;99.90
21672;DHT22;10997;52.242;8.168;2023-04-15T05:14:37;3.90;99.90
21672;DHT22;10997;52.242;8.168;2023-04-15T05:19:39;4.00;99.90
21672;DHT22;10997;52.242;8.168;2023-04-15T05:24:39;4.10;99.90
21672;DHT22;10997;52.242;8.168;2023-04-15T05:29:40;4.30;99.90
21672;DHT22;10997;52.242;8.168;2023-04-15T05:34:41;4.40;99.90
21672;DHT22;10997;52.242;8.168;2023-04-15T05:39:41;4.60;99.90
21672;DHT22;10997;52.242;8.168;2023-04-15T05:44:42;4.80;99.90
21672;DHT22;10997;52.242;8.168;2023-04-15T05:49:43;4.80;99.90
21672;DHT22;10997;52.242;8.168;2023-04-15T05:54:44;4.90;99.90
21672;DHT22;10997;52.242;8.168;2023-04-15T05:59:44;5.10;99.90
21672;DHT22;10997;52.242;8.168;2023-04-15T06:04:45;5.20;99.90
21672;DHT22;10997;52.242;8.168;2023-04-15T06:09:45;5.30;99.90
21672;DHT22;10997;52.242;8.168;2023-04-15T06:14:46;5.40;99.90
21672;DHT22;10997;52.242;8.168;2023-04-15T06:19:46;5.60;99.90
21672;DHT22;10997;52.242;8.168;2023-04-15T06:24:48;5.70;99.90
21672;DHT22;10997;52.242;8.168;2023-04-15T06:29:52;5.80;99.90
21672;DHT22;10997;52.242;8.168;2023-04-15T06:34:52;6.00;99.90
21672;DHT22;10997;52.242;8.168;2023-04-15T06:39:53;6.20;99.90
21672;DHT22;10997;52.242;8.168;2023-04-15T06:44:54;6.30;99.90
21672;DHT22;10997;52.242;8.168;2023-04-15T06:49:54;6.40;99.90
21672;DHT22;10997;52.242;8.168;2023-04-15T06:54:55;6.50;99.90
21672;DHT22;10997;52.242;8.168;2023-04-15T06:59:56;6.60;99.90
21672;DHT22;10997;52.242;8.168;2023-04-15T07:04:57;6.60;99.90
21672;DHT22;10997;52.242;8.168;2023-04-15T07:09:57;6.70;99.90
21672;DHT22;10997;52.242;8.168;2023-04-15T07:14:58;6.70;99.90
21672;DHT22;10997;52.242;8.168;2023-04-15T07:19:58;6.70;99.90
21672;DHT22;10997;52.242;8.168;2023-04-15T07:24:59;6.70;99.90
21672;DHT22;10997;52.242;8.168;2023-04-15T07:30:00;6.80;99.90
21672;DHT22;10997;52.242;8.168;2023-04-15T07:35:01;6.80;99.90
21672;DHT22;10997;52.242;8.168;2023-04-15T07:40:03;6.90;99.90
21672;DHT22;10997;52.242;8.168;2023-04-15T07:45:05;7.00;99.90
21672;DHT22;10997;52.242;8.168;2023-04-15T07:50:06;7.00;99.90
21672;DHT22;10997;52.242;8.168;2023-04-15T07:55:07;7.10;99.90
21672;DHT22;10997;52.242;8.168;2023-04-15T08:00:08;7.20;99.90
21672;DHT22;10997;52.242;8.168;2023-04-15T08:05:09;7.30;99.90
21672;DHT22;10997;52.242;8.168;2023-04-15T08:10:10;7.20;99.90
21672;DHT22;10997;52.242;8.168;2023-04-15T08:15:11;7.30;99.90
21672;DHT22;10997;52.242;8.168;2023-04-15T08:20:12;7.30;99.90
21672;DHT22;10997;52.242;8.168;2023-04-15T08:25:13;7.40;99.90
21672;DHT22;10997;52.242;8.168;2023-04-15T08:30:14;7.40;99.90
21672;DHT22;10997;52.242;8.168;2023-04-15T08:35:15;7.40;99.90
21672;DHT22;10997;52.242;8.168;2023-04-15T08:40:15;7.40;99.90
21672;DHT22;10997;52.242;8.168;2023-04-15T08:45:17;7.50;99.90
21672;DHT22;10997;52.242;8.168;2023-04-15T08:50:17;7.50;99.90
21672;DHT22;10997;52.242;8.168;2023-04-15T08:55:20;7.50;99.90
21672;DHT22;10997;52.242;8.168;2023-04-15T09:00:21;7.60;99.90
21672;DHT22;10997;52.242;8.168;2023-04-15T09:05:22;7.60;99.90
21672;DHT22;10997;52.242;8.168;2023-04-15T09:10:23;7.60;99.90
21672;DHT22;10997;52.242;8.168;2023-04-15T09:15:24;7.60;99.90
21672;DHT22;10997;52.242;8.168;2023-04-15T09:20:29;7.70;99.90
21672;DHT22;10997;52.242;8.168;2023-04-15T09:25:29;7.70;99.90
21672;DHT22;10997;52.242;8.168;2023-04-15T09:30:30;7.80;99.90
21672;DHT22;10997;52.242;8.168;2023-04-15T09:35:31;7.80;99.90
21672;DHT22;10997;52.242;8.168;2023-04-15T09:40:35;7.90;99.90
21672;DHT22;10997;52.242;8.168;2023-04-15T09:45:36;7.80;99.90
21672;DHT22;10997;52.242;8.168;2023-04-15T09:50:42;7.90;99.90
21672;DHT22;10997;52.242;8.168;2023-04-15T09:55:51;8.00;99.90
21672;DHT22;10997;52.242;8.168;2023-04-15T10:00:55;8.00;99.90
21672;DHT22;10997;52.242;8.168;2023-04-15T10:05:57;8.10;99.90
21672;DHT22;10997;52.242;8.168;2023-04-15T10:11:00;8.10;99.90
21672;DHT22;10997;52.242;8.168;2023-04-15T10:16:05;8.00;99.90
21672;DHT22;10997;52.242;8.168;2023-04-15T10:21:07;8.10;99.90
21672;DHT22;10997;52.242;8.168;2023-04-15T10:26:09;8.10;99.90
21672;DHT22;10997;52.242;8.168;2023-04-15T10:31:12;8.20;99.90
21672;DHT22;10997;52.242;8.168;2023-04-15T10:36:14;8.20;99.90
21672;DHT22;10997;52.242;8.168;2023-04-15T10:41:18;8.20;99.90
21672;DHT22;10997;52.242;8.168;2023-04-15T10:46:42;8.20;99.90
21672;DHT22;10997;52.242;8.168;2023-04-15T10:51:45;8.30;99.90
21672;DHT22;10997;52.242;8.168;2023-04-15T10:56:50;8.30;99.90
21672;DHT22;10997;52.242;8.168;2023-04-15T11:02:02;8.30;99.90
21672;DHT22;10997;52.242;8.168;2023-04-15T11:07:06;8.40;99.90
21672;DHT22;10997;52.242;8.168;2023-04-15T11:12:08;8.40;99.90
21672;DHT22;10997;52.242;8.168;2023-04-15T11:17:09;8.40;99.90
21672;DHT22;10997;52.242;8.168;2023-04-15T11:22:10;8.40;99.90
21672;DHT22;10997;52.242;8.168;2023-04-15T11:27:22;8.40;99.90
21672;DHT22;10997;52.242;8.168;2023-04-15T11:32:22;8.40;99.90
21672;DHT22;10997;52.242;8.168;2023-04-15T11:37:29;8.40;99.90
21672;DHT22;10997;52.242;8.168;2023-04-15T11:42:31;8.40;99.90
21672;DHT22;10997;52.242;8.168;2023-04-15T11:47:32;8.40;99.90
21672;DHT22;10997;52.242;8.168;2023-04-15T11:52:32;8.40;99.90
21672;DHT22;10997;52.242;8.168;2023-04-15T11:57:34;8.30;99.90
21672;DHT22;10997;52.242;8.168;2023-04-15T12:02:36;8.30;99.90
21672;DHT22;10997;52.242;8.168;2023-04-15T12:07:58;8.40;99.90
21672;DHT22;10997;52.242;8.168;2023-04-15T12:12:59;8.40;99.90
21672;DHT22;10997;52.242;8.168;2023-04-15T12:18:00;8.40;99.90
21672;DHT22;10997;52.242;8.168;2023-04-15T12:23:06;8.40;99.90
21672;DHT22;10997;52.242;8.168;2023-04-15T12:28:10;8.40;99.90
21672;DHT22;10997;52.242;8.168;2023-04-15T12:33:11;8.40;99.90
21672;DHT22;10997;52.242;8.168;2023-04-15T12:38:11;8.40;99.90
21672;DHT22;10997;52.242;8.168;2023-04-15T12:43:12;8.30;99.90
21672;DHT22;10997;52.242;8.168;2023-04-15T12:48:13;8.40;99.90
21672;DHT22;10997;52.242;8.168;2023-04-15T12:53:13;8.40;99.90
21672;DHT22;10997;52.242;8.168;2023-04-15T12:58:14;8.40;99.90
21672;DHT22;10997;52.242;8.168;2023-04-15T13:03:14;8.30;99.90
21672;DHT22;10997;52.242;8.168;2023-04-15T13:08:15;8.40;99.90
21672;DHT22;10997;52.242;8.168;2023-04-15T13:13:16;8.30;99.90
21672;DHT22;10997;52.242;8.168;2023-04-15T13:18:16;8.30;99.90
21672;DHT22;10997;52.242;8.168;2023-04-15T13:23:17;8.40;99.90
21672;DHT22;10997;52.242;8.168;2023-04-15T13:28:18;8.30;99.90
21672;DHT22;10997;52.242;8.168;2023-04-15T13:33:18;8.30;99.90
21672;DHT22;10997;52.242;8.168;2023-04-15T13:38:19;8.30;99.90
21672;DHT22;10997;52.242;8.168;2023-04-15T13:43:20;8.30;99.90
21672;DHT22;10997;52.242;8.168;2023-04-15T13:48:20;8.20;99.90
21672;DHT22;10997;52.242;8.168;2023-04-15T13:53:21;8.20;99.90
21672;DHT22;10997;52.242;8.168;2023-04-15T13:58:22;8.20;99.90
21672;DHT22;10997;52.242;8.168;2023-04-15T14:03:22;8.30;99.90
21672;DHT22;10997;52.242;8.168;2023-04-15T14:08:24;8.30;99.90
21672;DHT22;10997;52.242;8.168;2023-04-15T14:13:24;8.30;99.90
21672;DHT22;10997;52.242;8.168;2023-04-15T14:18:25;8.30;99.90
21672;DHT22;10997;52.242;8.168;2023-04-15T14:23:26;8.30;99.90
21672;DHT22;10997;52.242;8.168;2023-04-15T14:28:26;8.40;99.90
21672;DHT22;10997;52.242;8.168;2023-04-15T14:33:27;8.30;99.90
21672;DHT22;10997;52.242;8.168;2023-04-15T14:38:28;8.40;99.90
21672;DHT22;10997;52.242;8.168;2023-04-15T14:43:28;8.40;99.90
21672;DHT22;10997;52.242;8.168;2023-04-15T14:48:30;8.40;99.90
21672;DHT22;10997;52.242;8.168;2023-04-15T14:53:31;8.40;99.90
21672;DHT22;10997;52.242;8.168;2023-04-15T14:58:32;8.40;99.90
21672;DHT22;10997;52.242;8.168;2023-04-15T15:03:32;8.40;99.90
21672;DHT22;10997;52.242;8.168;2023-04-15T15:08:33;8.40;99.90
21672;DHT22;10997;52.242;8.168;2023-04-15T15:13:34;8.40;99.90
21672;DHT22;10997;52.242;8.168;2023-04-15T15:18:35;8.50;99.90
21672;DHT22;10997;52.242;8.168;2023-04-15T15:23:35;8.50;99.90
21672;DHT22;10997;52.242;8.168;2023-04-15T15:28:36;8.50;99.90
21672;DHT22;10997;52.242;8.168;2023-04-15T15:33:36;8.50;99.90
21672;DHT22;10997;52.242;8.168;2023-04-15T15:38:37;8.50;99.90
21672;DHT22;10997;52.242;8.168;2023-04-15T15:43:39;8.50;99.90
21672;DHT22;10997;52.242;8.168;2023-04-15T15:48:41;8.50;99.90
21672;DHT22;10997;52.242;8.168;2023-04-15T15:53:41;8.50;99.90
21672;DHT22;10997;52.242;8.168;2023-04-15T15:58:43;8.50;99.90
21672;DHT22;10997;52.242;8.168;2023-04-15T16:03:44;8.50;99.90
21672;DHT22;10997;52.242;8.168;2023-04-15T16:08:45;8.50;99.90
21672;DHT22;10997;52.242;8.168;2023-04-15T16:13:45;8.50;99.90
21672;DHT22;10997;52.242;8.168;2023-04-15T16:18:46;8.60;99.90
21672;DHT22;10997;52.242;8.168;2023-04-15T16:23:46;8.60;99.90
21672;DHT22;10997;52.242;8.168;2023-04-15T16:28:47;8.60;99.90
21672;DHT22;10997;52.242;8.168;2023-04-15T16:33:47;8.60;99.90
21672;DHT22;10997;52.242;8.168;2023-04-15T16:38:48;8.70;99.90
21672;DHT22;10997;52.242;8.168;2023-04-15T16:43:49;8.70;99.90
21672;DHT22;10997;52.242;8.168;2023-04-15T16:48:49;8.70;99.90
21672;DHT22;10997;52.242;8.168;2023-04-15T16:53:50;8.70;99.90
21672;DHT22;10997;52.242;8.168;2023-04-15T16:58:50;8.60;99.90
21672;DHT22;10997;52.242;8.168;2023-04-15T17:03:51;8.60;99.90
21672;DHT22;10997;52.242;8.168;2023-04-15T17:08:52;8.70;99.90
21672;DHT22;10997;52.242;8.168;2023-04-15T17:13:52;8.60;99.90
21672;DHT22;10997;52.242;8.168;2023-04-15T17:18:53;8.60;99.90
21672;DHT22;10997;52.242;8.168;2023-04-15T17:23:53;8.60;99.90
21672;DHT22;10997;52.242;8.168;2023-04-15T17:28:54;8.60;99.90
21672;DHT22;10997;52.242;8.168;2023-04-15T17:33:55;8.60;99.90
21672;DHT22;10997;52.242;8.168;2023-04-15T17:38:56;8.60;99.90
21672;DHT22;10997;52.242;8.168;2023-04-15T17:43:56;8.60;99.90
21672;DHT22;10997;52.242;8.168;2023-04-15T17:48:57;8.60;99.90
21672;DHT22;10997;52.242;8.168;2023-04-15T17:53:58;8.50;99.90
21672;DHT22;10997;52.242;8.168;2023-04-15T17:58:58;8.50;99.90
21672;DHT22;10997;52.242;8.168;2023-04-15T18:03:59;8.50;99.90
21672;DHT22;10997;52.242;8.168;2023-04-15T18:09:00;8.50;99.90
21672;DHT22;10997;52.242;8.168;2023-04-15T18:14:01;8.50;99.90
21672;DHT22;10997;52.242;8.168;2023-04-15T18:19:02;8.50;99.90
21672;DHT22;10997;52.242;8.168;2023-04-15T18:24:03;8.50;99.90
21672;DHT22;10997;52.242;8.168;2023-04-15T18:29:04;8.50;99.90
21672;DHT22;10997;52.242;8.168;2023-04-15T18:34:04;8.50;99.90
21672;DHT22;10997;52.242;8.168;2023-04-15T18:39:06;8.50;99.90
21672;DHT22;10997;52.242;8.168;2023-04-15T18:44:07;8.50;99.90
21672;DHT22;10997;52.242;8.168;2023-04-15T18:49:08;8.50;99.90
21672;DHT22;10997;52.242;8.168;2023-04-15T18:54:09;8.50;99.90
21672;DHT22;10997;52.242;8.168;2023-04-15T18:59:09;8.40;99.90
21672;DHT22;10997;52.242;8.168;2023-04-15T19:04:10;8.50;99.90
21672;DHT22;10997;52.242;8.168;2023-04-15T19:09:11;8.40;99.90
21672;DHT22;10997;52.242;8.168;2023-04-15T19:14:12;8.40;99.90
21672;DHT22;10997;52.242;8.168;2023-04-15T19:19:12;8.50;99.90
21672;DHT22;10997;52.242;8.168;2023-04-15T19:24:17;8.40;99.90
21672;DHT22;10997;52.242;8.168;2023-04-15T19:29:17;8.40;99.90
21672;DHT22;10997;52.242;8.168;2023-04-15T19:34:18;8.50;99.90
21672;DHT22;10997;52.242;8.168;2023-04-15T19:39:18;8.50;99.90
21672;DHT22;10997;52.242;8.168;2023-04-15T19:44:19;8.50;99.90
21672;DHT22;10997;52.242;8.168;2023-04-15T19:49:20;8.50;99.90
21672;DHT22;10997;52.242;8.168;2023-04-15T19:54:20;8.50;99.90
21672;DHT22;10997;52.242;8.168;2023-04-15T19:59:22;8.50;99.90
21672;DHT22;10997;52.242;8.168;2023-04-15T20:04:22;8.50;99.90
21672;DHT22;10997;52.242;8.168;2023-04-15T20:09:23;8.50;99.90
21672;DHT22;10997;52.242;8.168;2023-04-15T20:14:24;8.50;99.90
21672;DHT22;10997;52.242;8.168;2023-04-15T20:19:24;8.50;99.90
21672;DHT22;10997;52.242;8.168;2023-04-15T20:24:25;8.50;99.90
21672;DHT22;10997;52.242;8.168;2023-04-15T20:29:26;8.50;99.90
21672;DHT22;10997;52.242;8.168;2023-04-15T20:34:27;8.60;99.90
21672;DHT22;10997;52.242;8.168;2023-04-15T20:39:27;8.60;99.90
21672;DHT22;10997;52.242;8.168;2023-04-15T20:44:29;8.60;99.90
21672;DHT22;10997;52.242;8.168;2023-04-15T20:49:37;8.60;99.90
21672;DHT22;10997;52.242;8.168;2023-04-15T20:54:37;8.60;99.90
21672;DHT22;10997;52.242;8.168;2023-04-15T20:59:38;8.70;99.90
21672;DHT22;10997;52.242;8.168;2023-04-15T21:04:39;8.60;99.90
21672;DHT22;10997;52.242;8.168;2023-04-15T21:09:39;8.70;99.90
21672;DHT22;10997;52.242;8.168;2023-04-15T21:14:42;8.70;99.90
21672;DHT22;10997;52.242;8.168;2023-04-15T21:19:42;8.70;99.90
21672;DHT22;10997;52.242;8.168;2023-04-15T21:24:43;8.70;99.90
21672;DHT22;10997;52.242;8.168;2023-04-15T21:29:43;8.70;99.90
21672;DHT22;10997;52.242;8.168;2023-04-15T21:34:44;8.70;99.90
21672;DHT22;10997;52.242;8.168;2023-04-15T21:39:45;8.70;99.90
21672;DHT22;10997;52.242;8.168;2023-04-15T21:44:45;8.70;99.90
21672;DHT22;10997;52.242;8.168;2023-04-15T21:49:46;8.70;99.90
21672;DHT22;10997;52.242;8.168;2023-04-15T21:54:46;8.80;99.90
21672;DHT22;10997;52.242;8.168;2023-04-15T21:59:47;8.80;99.90
21672;DHT22;10997;52.242;8.168;2023-04-15T22:04:47;8.80;99.90
21672;DHT22;10997;52.242;8.168;2023-04-15T22:09:49;8.80;99.90
21672;DHT22;10997;52.242;8.168;2023-04-15T22:14:50;8.80;99.90
21672;DHT22;10997;52.242;8.168;2023-04-15T22:19:50;8.70;99.90
21672;DHT22;10997;52.242;8.168;2023-04-15T22:24:51;8.80;99.90
21672;DHT22;10997;52.242;8.168;2023-04-15T22:29:51;8.80;99.90
21672;DHT22;10997;52.242;8.168;2023-04-15T22:34:52;8.70;99.90
21672;DHT22;10997;52.242;8.168;2023-04-15T22:39:53;8.80;99.90
21672;DHT22;10997;52.242;8.168;2023-04-15T22:44:53;8.70;99.90
21672;DHT22;10997;52.242;8.168;2023-04-15T22:49:54;8.70;99.90
21672;DHT22;10997;52.242;8.168;2023-04-15T22:54:54;8.70;99.90
21672;DHT22;10997;52.242;8.168;2023-04-15T22:59:55;8.70;99.90
21672;DHT22;10997;52.242;8.168;2023-04-15T23:04:55;8.70;99.90
21672;DHT22;10997;52.242;8.168;2023-04-15T23:09:56;8.70;99.90
21672;DHT22;10997;52.242;8.168;2023-04-15T23:14:59;8.70;99.90
21672;DHT22;10997;52.242;8.168;2023-04-15T23:20:00;8.70;99.90
21672;DHT22;10997;52.242;8.168;2023-04-15T23:25:00;8.70;99.90
21672;DHT22;10997;52.242;8.168;2023-04-15T23:30:01;8.70;99.90
21672;DHT22;10997;52.242;8.168;2023-04-15T23:35:02;8.70;99.90
21672;DHT22;10997;52.242;8.168;2023-04-15T23:40:03;8.70;99.90
21672;DHT22;10997;52.242;8.168;2023-04-15T23:45:04;8.70;99.90
21672;DHT22;10997;52.242;8.168;2023-04-15T23:50:09;8.80;99.90
21672;DHT22;10997;52.242;8.168;2023-04-15T23:55:09;8.70;99.90
